sensor_id;sensor_type;location;lat;lon;timestamp;pressure;altitude;pressure_sealevel;temperature;humidity
48614;BME280;34408;51.426;5.444;2023-06-22T00:00:27;101754.84;;;24.36;42.68
48614;BME280;34408;51.426;5.444;2023-06-22T00:02:55;101759.81;;;24.33;43.07
48614;BME280;34408;51.426;5.444;2023-06-22T00:05:23;101771.91;;;24.32;42.85
48614;BME280;34408;51.426;5.444;2023-06-22T00:07:51;101772.19;;;24.31;42.83
48614;BME280;34408;51.426;5.444;2023-06-22T00:10:19;101772.50;;;24.29;42.87
48614;BME280;34408;51.426;5.444;2023-06-22T00:12:48;101769.22;;;24.27;43.00
48614;BME280;34408;51.426;5.444;2023-06-22T00:15:16;101771.13;;;24.27;42.89
48614;BME280;34408;51.426;5.444;2023-06-22T00:17:43;101777.22;;;24.24;43.53
48614;BME280;34408;51.426;5.444;2023-06-22T00:20:11;101777.50;;;24.22;43.53
48614;BME280;34408;51.426;5.444;2023-06-22T00:22:41;101777.81;;;24.21;43.34
48614;BME280;34408;51.426;5.444;2023-06-22T00:25:09;101770.97;;;24.18;43.39
48614;BME280;34408;51.426;5.444;2023-06-22T00:27:37;101767.69;;;24.16;43.51
48614;BME280;34408;51.426;5.444;2023-06-22T00:30:08;101761.66;;;24.14;43.84
48614;BME280;34408;51.426;5.444;2023-06-22T00:32:36;101763.88;;;24.12;44.09
48614;BME280;34408;51.426;5.444;2023-06-22T00:35:04;101765.00;;;24.11;43.91
48614;BME280;34408;51.426;5.444;2023-06-22T00:37:32;101764.47;;;24.09;44.35
48614;BME280;34408;51.426;5.444;2023-06-22T00:40:00;101758.44;;;24.07;44.36
48614;BME280;34408;51.426;5.444;2023-06-22T00:42:28;101766.97;;;24.06;44.49
48614;BME280;34408;51.426;5.444;2023-06-22T00:44:55;101754.34;;;24.05;44.26
48614;BME280;34408;51.426;5.444;2023-06-22T00:47:27;101751.88;;;24.03;44.35
48614;BME280;34408;51.426;5.444;2023-06-22T00:49:55;101752.19;;;24.01;44.39
48614;BME280;34408;51.426;5.444;2023-06-22T00:52:23;101757.97;;;24.00;44.60
48614;BME280;34408;51.426;5.444;2023-06-22T00:54:55;101761.81;;;23.99;44.59
48614;BME280;34408;51.426;5.444;2023-06-22T00:57:24;101756.63;;;23.97;44.63
48614;BME280;34408;51.426;5.444;2023-06-22T00:59:54;101754.44;;;23.94;44.62
48614;BME280;34408;51.426;5.444;2023-06-22T01:02:22;101753.91;;;23.92;45.34
48614;BME280;34408;51.426;5.444;2023-06-22T01:04:51;101753.09;;;23.92;44.97
48614;BME280;34408;51.426;5.444;2023-06-22T01:07:27;101756.13;;;23.90;45.26
48614;BME280;34408;51.426;5.444;2023-06-22T01:10:04;101760.81;;;23.90;45.19
48614;BME280;34408;51.426;5.444;2023-06-22T01:12:38;101745.44;;;23.89;45.37
48614;BME280;34408;51.426;5.444;2023-06-22T01:15:10;101748.47;;;23.87;44.83
48614;BME280;34408;51.426;5.444;2023-06-22T01:17:40;101753.16;;;23.87;45.56
48614;BME280;34408;51.426;5.444;2023-06-22T01:20:12;101748.75;;;23.86;45.63
48614;BME280;34408;51.426;5.444;2023-06-22T01:25:45;101760.31;;;23.83;45.44
48614;BME280;34408;51.426;5.444;2023-06-22T01:28:33;101762.25;;;23.82;45.59
48614;BME280;34408;51.426;5.444;2023-06-22T01:31:03;101764.19;;;23.82;45.25
48614;BME280;34408;51.426;5.444;2023-06-22T01:33:34;101759.78;;;23.81;45.75
48614;BME280;34408;51.426;5.444;2023-06-22T01:36:03;101751.84;;;23.79;45.72
48614;BME280;34408;51.426;5.444;2023-06-22T01:38:32;101752.94;;;23.78;45.57
48614;BME280;34408;51.426;5.444;2023-06-22T01:41:02;101746.94;;;23.76;45.49
48614;BME280;34408;51.426;5.444;2023-06-22T01:43:32;101741.72;;;23.75;46.16
48614;BME280;34408;51.426;5.444;2023-06-22T01:46:02;101740.91;;;23.74;45.96
48614;BME280;34408;51.426;5.444;2023-06-22T01:48:30;101748.63;;;23.72;45.90
48614;BME280;34408;51.426;5.444;2023-06-22T01:50:59;101741.47;;;23.71;45.93
48614;BME280;34408;51.426;5.444;2023-06-22T01:53:27;101742.59;;;23.70;46.35
48614;BME280;34408;51.426;5.444;2023-06-22T01:55:55;101744.53;;;23.69;46.49
48614;BME280;34408;51.426;5.444;2023-06-22T01:58:25;101743.16;;;23.67;45.98
48614;BME280;34408;51.426;5.444;2023-06-22T02:00:58;101747.84;;;23.66;46.26
48614;BME280;34408;51.426;5.444;2023-06-22T02:03:32;101740.72;;;23.65;46.61
48614;BME280;34408;51.426;5.444;2023-06-22T02:06:05;101738.25;;;23.64;46.08
48614;BME280;34408;51.426;5.444;2023-06-22T02:08:40;101733.06;;;23.62;46.40
48614;BME280;34408;51.426;5.444;2023-06-22T02:11:09;101734.44;;;23.60;46.76
48614;BME280;34408;51.426;5.444;2023-06-22T02:13:39;101733.09;;;23.57;46.76
48614;BME280;34408;51.426;5.444;2023-06-22T02:16:11;101732.56;;;23.55;46.73
48614;BME280;34408;51.426;5.444;2023-06-22T02:18:46;101731.75;;;23.55;46.55
48614;BME280;34408;51.426;5.444;2023-06-22T02:21:14;101734.22;;;23.51;46.64
48614;BME280;34408;51.426;5.444;2023-06-22T02:23:41;101731.47;;;23.51;46.67
48614;BME280;34408;51.426;5.444;2023-06-22T02:26:09;101727.09;;;23.50;47.03
48614;BME280;34408;51.426;5.444;2023-06-22T02:28:37;101726.56;;;23.48;46.78
48614;BME280;34408;51.426;5.444;2023-06-22T02:31:05;101723.28;;;23.46;46.89
48614;BME280;34408;51.426;5.444;2023-06-22T02:33:34;101721.34;;;23.47;47.23
48614;BME280;34408;51.426;5.444;2023-06-22T02:36:02;101725.50;;;23.44;47.28
48614;BME280;34408;51.426;5.444;2023-06-22T02:38:31;101718.06;;;23.45;47.16
48614;BME280;34408;51.426;5.444;2023-06-22T02:41:01;101715.91;;;23.42;47.67
48614;BME280;34408;51.426;5.444;2023-06-22T02:43:29;101709.88;;;23.40;47.25
48614;BME280;34408;51.426;5.444;2023-06-22T02:45:56;101707.44;;;23.38;47.12
48614;BME280;34408;51.426;5.444;2023-06-22T02:48:24;101709.34;;;23.37;47.46
48614;BME280;34408;51.426;5.444;2023-06-22T02:50:53;101714.31;;;23.35;47.61
48614;BME280;34408;51.426;5.444;2023-06-22T02:53:21;101708.00;;;23.35;47.53
48614;BME280;34408;51.426;5.444;2023-06-22T02:55:49;101713.50;;;23.35;47.18
48614;BME280;34408;51.426;5.444;2023-06-22T02:58:17;101719.25;;;23.33;47.10
48614;BME280;34408;51.426;5.444;2023-06-22T03:00:44;101713.78;;;23.33;47.35
48614;BME280;34408;51.426;5.444;2023-06-22T03:03:12;101703.91;;;23.32;47.00
48614;BME280;34408;51.426;5.444;2023-06-22T03:05:40;101696.78;;;23.31;47.74
48614;BME280;34408;51.426;5.444;2023-06-22T03:08:09;101699.53;;;23.31;47.45
48614;BME280;34408;51.426;5.444;2023-06-22T03:10:37;101693.50;;;23.29;47.27
48614;BME280;34408;51.426;5.444;2023-06-22T03:13:05;101696.53;;;23.28;47.19
48614;BME280;34408;51.426;5.444;2023-06-22T03:15:33;101689.94;;;23.29;47.56
48614;BME280;34408;51.426;5.444;2023-06-22T03:18:01;101680.38;;;23.26;47.26
48614;BME280;34408;51.426;5.444;2023-06-22T03:25:28;101676.28;;;23.24;48.22
48614;BME280;34408;51.426;5.444;2023-06-22T03:27:56;101673.00;;;23.22;48.29
48614;BME280;34408;51.426;5.444;2023-06-22T03:30:24;101669.44;;;23.21;47.94
48614;BME280;34408;51.426;5.444;2023-06-22T03:32:52;101661.50;;;23.20;48.39
48614;BME280;34408;51.426;5.444;2023-06-22T03:35:20;101666.44;;;23.18;48.45
48614;BME280;34408;51.426;5.444;2023-06-22T03:37:49;101670.00;;;23.18;48.10
48614;BME280;34408;51.426;5.444;2023-06-22T03:40:17;101659.31;;;23.17;48.45
48614;BME280;34408;51.426;5.444;2023-06-22T03:42:46;101658.78;;;23.15;48.46
48614;BME280;34408;51.426;5.444;2023-06-22T03:45:14;101653.31;;;23.15;48.30
48614;BME280;34408;51.426;5.444;2023-06-22T03:47:41;101654.69;;;23.12;48.38
48614;BME280;34408;51.426;5.444;2023-06-22T03:50:09;101661.28;;;23.11;48.56
48614;BME280;34408;51.426;5.444;2023-06-22T03:52:37;101663.22;;;23.11;48.38
48614;BME280;34408;51.426;5.444;2023-06-22T03:55:06;101663.50;;;23.09;48.04
48614;BME280;34408;51.426;5.444;2023-06-22T03:57:34;101664.59;;;23.08;48.76
48614;BME280;34408;51.426;5.444;2023-06-22T04:00:05;101665.72;;;23.07;48.69
48614;BME280;34408;51.426;5.444;2023-06-22T04:02:33;101667.91;;;23.05;48.62
48614;BME280;34408;51.426;5.444;2023-06-22T04:05:01;101672.88;;;23.03;48.60
48614;BME280;34408;51.426;5.444;2023-06-22T04:07:30;101668.50;;;23.02;48.83
48614;BME280;34408;51.426;5.444;2023-06-22T04:09:58;101666.31;;;22.99;49.21
48614;BME280;34408;51.426;5.444;2023-06-22T04:12:26;101670.16;;;22.98;48.70
48614;BME280;34408;51.426;5.444;2023-06-22T04:14:54;101668.53;;;22.97;48.98
48614;BME280;34408;51.426;5.444;2023-06-22T04:17:23;101661.41;;;22.96;49.14
48614;BME280;34408;51.426;5.444;2023-06-22T04:19:51;101657.31;;;22.93;49.15
48614;BME280;34408;51.426;5.444;2023-06-22T04:22:19;101660.34;;;22.92;49.34
48614;BME280;34408;51.426;5.444;2023-06-22T04:24:47;101661.44;;;22.91;49.34
48614;BME280;34408;51.426;5.444;2023-06-22T04:27:14;101663.66;;;22.89;49.53
48614;BME280;34408;51.426;5.444;2023-06-22T04:29:42;101664.75;;;22.88;49.46
48614;BME280;34408;51.426;5.444;2023-06-22T04:32:15;101668.31;;;22.88;49.60
48614;BME280;34408;51.426;5.444;2023-06-22T04:34:44;101666.13;;;22.85;49.17
48614;BME280;34408;51.426;5.444;2023-06-22T04:37:12;101665.31;;;22.85;49.66
48614;BME280;34408;51.426;5.444;2023-06-22T04:39:42;101659.84;;;22.85;49.17
48614;BME280;34408;51.426;5.444;2023-06-22T04:42:11;101665.59;;;22.83;49.47
48614;BME280;34408;51.426;5.444;2023-06-22T04:44:39;101669.44;;;22.82;49.69
48614;BME280;34408;51.426;5.444;2023-06-22T04:47:08;101670.25;;;22.83;49.58
48614;BME280;34408;51.426;5.444;2023-06-22T04:49:36;101665.88;;;22.82;49.80
48614;BME280;34408;51.426;5.444;2023-06-22T04:52:07;101674.09;;;22.82;49.46
48614;BME280;34408;51.426;5.444;2023-06-22T04:54:36;101667.00;;;22.81;49.44
48614;BME280;34408;51.426;5.444;2023-06-22T04:57:06;101657.94;;;22.80;49.50
48614;BME280;34408;51.426;5.444;2023-06-22T04:59:37;101662.03;;;22.78;49.46
48614;BME280;34408;51.426;5.444;2023-06-22T05:02:09;101665.34;;;22.80;49.64
48614;BME280;34408;51.426;5.444;2023-06-22T05:04:37;101662.59;;;22.80;49.70
48614;BME280;34408;51.426;5.444;2023-06-22T05:07:08;101673.56;;;22.80;49.75
48614;BME280;34408;51.426;5.444;2023-06-22T05:09:36;101662.84;;;22.78;50.00
48614;BME280;34408;51.426;5.444;2023-06-22T05:12:05;101663.97;;;22.77;50.39
48614;BME280;34408;51.426;5.444;2023-06-22T05:14:36;101658.75;;;22.76;50.19
48614;BME280;34408;51.426;5.444;2023-06-22T05:17:04;101653.56;;;22.74;50.85
48614;BME280;34408;51.426;5.444;2023-06-22T05:19:41;101650.81;;;22.74;50.58
48614;BME280;34408;51.426;5.444;2023-06-22T05:22:13;101659.06;;;22.74;50.60
48614;BME280;34408;51.426;5.444;2023-06-22T05:24:40;101658.22;;;22.73;50.85
48614;BME280;34408;51.426;5.444;2023-06-22T05:27:08;101657.69;;;22.71;50.85
48614;BME280;34408;51.426;5.444;2023-06-22T05:29:37;101661.81;;;22.69;50.67
48614;BME280;34408;51.426;5.444;2023-06-22T05:32:05;101671.41;;;22.71;50.78
48614;BME280;34408;51.426;5.444;2023-06-22T05:34:33;101662.34;;;22.71;51.12
48614;BME280;34408;51.426;5.444;2023-06-22T05:37:01;101653.31;;;22.70;50.95
48614;BME280;34408;51.426;5.444;2023-06-22T05:39:31;101657.16;;;22.69;50.43
48614;BME280;34408;51.426;5.444;2023-06-22T05:41:58;101655.78;;;22.72;50.72
48614;BME280;34408;51.426;5.444;2023-06-22T05:44:26;101656.59;;;22.72;50.27
48614;BME280;34408;51.426;5.444;2023-06-22T05:46:54;101662.06;;;22.72;50.41
48614;BME280;34408;51.426;5.444;2023-06-22T05:49:22;101660.16;;;22.73;50.42
48614;BME280;34408;51.426;5.444;2023-06-22T05:51:51;101656.88;;;22.71;50.25
48614;BME280;34408;51.426;5.444;2023-06-22T05:54:18;101665.91;;;22.71;50.86
48614;BME280;34408;51.426;5.444;2023-06-22T05:56:48;101665.09;;;22.71;50.42
48614;BME280;34408;51.426;5.444;2023-06-22T05:59:16;101668.94;;;22.70;51.09
48614;BME280;34408;51.426;5.444;2023-06-22T06:01:43;101656.63;;;22.67;51.14
48614;BME280;34408;51.426;5.444;2023-06-22T06:04:11;101663.50;;;22.65;50.78
48614;BME280;34408;51.426;5.444;2023-06-22T06:06:39;101665.66;;;22.68;50.68
48614;BME280;34408;51.426;5.444;2023-06-22T06:09:07;101664.56;;;22.69;50.51
48614;BME280;34408;51.426;5.444;2023-06-22T06:11:35;101677.44;;;22.68;50.51
48614;BME280;34408;51.426;5.444;2023-06-22T06:14:04;101655.53;;;22.68;51.15
48614;BME280;34408;51.426;5.444;2023-06-22T06:16:32;101659.38;;;22.67;51.09
48614;BME280;34408;51.426;5.444;2023-06-22T06:18:59;101659.38;;;22.67;52.13
48614;BME280;34408;51.426;5.444;2023-06-22T06:21:27;101661.81;;;22.69;51.54
48614;BME280;34408;51.426;5.444;2023-06-22T06:23:56;101670.88;;;22.69;51.91
48614;BME280;34408;51.426;5.444;2023-06-22T06:26:25;101661.00;;;22.68;51.25
48614;BME280;34408;51.426;5.444;2023-06-22T06:28:56;101673.31;;;22.71;51.36
48614;BME280;34408;51.426;5.444;2023-06-22T06:31:26;101657.97;;;22.70;51.50
48614;BME280;34408;51.426;5.444;2023-06-22T06:33:55;101656.34;;;22.69;51.32
48614;BME280;34408;51.426;5.444;2023-06-22T06:36:23;101663.47;;;22.70;51.58
48614;BME280;34408;51.426;5.444;2023-06-22T06:38:51;101656.34;;;22.69;51.08
48614;BME280;34408;51.426;5.444;2023-06-22T06:41:18;101657.97;;;22.70;51.33
48614;BME280;34408;51.426;5.444;2023-06-22T06:43:47;101662.63;;;22.69;51.66
48614;BME280;34408;51.426;5.444;2023-06-22T06:46:15;101663.75;;;22.68;51.46
48614;BME280;34408;51.426;5.444;2023-06-22T06:48:44;101665.38;;;22.69;51.62
48614;BME280;34408;51.426;5.444;2023-06-22T06:51:12;101655.22;;;22.70;51.59
48614;BME280;34408;51.426;5.444;2023-06-22T06:53:40;101648.72;;;22.61;51.66
48614;BME280;34408;51.426;5.444;2023-06-22T06:56:08;101675.25;;;22.70;51.26
48614;BME280;34408;51.426;5.444;2023-06-22T06:58:37;101676.06;;;22.71;51.58
48614;BME280;34408;51.426;5.444;2023-06-22T07:01:05;101668.66;;;22.71;51.30
48614;BME280;34408;51.426;5.444;2023-06-22T07:03:33;101683.19;;;22.72;51.30
48614;BME280;34408;51.426;5.444;2023-06-22T07:06:02;101684.81;;;22.73;51.23
48614;BME280;34408;51.426;5.444;2023-06-22T07:08:30;101679.34;;;22.73;50.85
48614;BME280;34408;51.426;5.444;2023-06-22T07:10:58;101680.16;;;22.73;50.90
48614;BME280;34408;51.426;5.444;2023-06-22T07:13:27;101680.16;;;22.73;50.94
48614;BME280;34408;51.426;5.444;2023-06-22T07:15:55;101677.13;;;22.75;50.95
48614;BME280;34408;51.426;5.444;2023-06-22T07:18:23;101667.00;;;22.76;51.13
48614;BME280;34408;51.426;5.444;2023-06-22T07:20:51;101661.50;;;22.76;51.07
48614;BME280;34408;51.426;5.444;2023-06-22T07:23:20;101652.47;;;22.75;50.83
48614;BME280;34408;51.426;5.444;2023-06-22T07:25:48;101649.72;;;22.75;50.73
48614;BME280;34408;51.426;5.444;2023-06-22T07:28:15;101645.06;;;22.76;50.97
48614;BME280;34408;51.426;5.444;2023-06-22T07:30:43;101634.09;;;22.76;50.82
48614;BME280;34408;51.426;5.444;2023-06-22T07:33:11;101629.44;;;22.76;51.21
48614;BME280;34408;51.426;5.444;2023-06-22T07:35:39;101621.50;;;22.74;51.51
48614;BME280;34408;51.426;5.444;2023-06-22T07:38:07;101625.34;;;22.73;51.71
48614;BME280;34408;51.426;5.444;2023-06-22T07:40:36;101622.59;;;22.73;51.56
48614;BME280;34408;51.426;5.444;2023-06-22T07:43:04;101626.44;;;22.72;51.69
48614;BME280;34408;51.426;5.444;2023-06-22T07:45:32;101607.25;;;22.72;51.72
48614;BME280;34408;51.426;5.444;2023-06-22T07:48:01;101603.41;;;22.73;51.69
48614;BME280;34408;51.426;5.444;2023-06-22T07:50:29;101594.38;;;22.73;51.91
48614;BME280;34408;51.426;5.444;2023-06-22T07:52:58;101592.47;;;22.73;51.93
48614;BME280;34408;51.426;5.444;2023-06-22T07:55:25;101584.22;;;22.73;51.72
48614;BME280;34408;51.426;5.444;2023-06-22T07:57:56;101576.84;;;22.74;51.86
48614;BME280;34408;51.426;5.444;2023-06-22T08:00:24;101574.09;;;22.74;52.04
48614;BME280;34408;51.426;5.444;2023-06-22T08:02:52;101566.97;;;22.73;52.46
48614;BME280;34408;51.426;5.444;2023-06-22T08:05:20;101554.38;;;22.72;52.17
48614;BME280;34408;51.426;5.444;2023-06-22T08:07:48;101547.78;;;22.73;52.10
48614;BME280;34408;51.426;5.444;2023-06-22T08:10:17;101543.94;;;22.74;52.08
48614;BME280;34408;51.426;5.444;2023-06-22T08:12:45;101545.88;;;22.73;52.21
48614;BME280;34408;51.426;5.444;2023-06-22T08:15:14;101535.72;;;22.74;52.23
48614;BME280;34408;51.426;5.444;2023-06-22T08:17:43;101534.91;;;22.73;52.82
48614;BME280;34408;51.426;5.444;2023-06-22T08:20:11;101533.28;;;22.72;52.96
48614;BME280;34408;51.426;5.444;2023-06-22T08:22:39;101542.59;;;22.71;53.39
48614;BME280;34408;51.426;5.444;2023-06-22T08:25:08;101533.56;;;22.71;53.17
48614;BME280;34408;51.426;5.444;2023-06-22T08:27:36;101539.31;;;22.69;53.68
48614;BME280;34408;51.426;5.444;2023-06-22T08:30:05;101556.88;;;22.68;53.89
48614;BME280;34408;51.426;5.444;2023-06-22T08:32:35;101551.38;;;22.68;53.89
48614;BME280;34408;51.426;5.444;2023-06-22T08:35:03;101547.81;;;22.68;53.90
48614;BME280;34408;51.426;5.444;2023-06-22T08:37:33;101549.75;;;22.67;53.81
48614;BME280;34408;51.426;5.444;2023-06-22T08:40:03;101547.81;;;22.68;53.96
48614;BME280;34408;51.426;5.444;2023-06-22T08:42:32;101550.56;;;22.68;53.78
48614;BME280;34408;51.426;5.444;2023-06-22T08:45:00;101542.63;;;22.66;53.76
48614;BME280;34408;51.426;5.444;2023-06-22T08:47:28;101543.44;;;22.67;53.83
48614;BME280;34408;51.426;5.444;2023-06-22T08:49:57;101532.50;;;22.67;54.02
48614;BME280;34408;51.426;5.444;2023-06-22T08:52:25;101535.22;;;22.67;54.36
48614;BME280;34408;51.426;5.444;2023-06-22T08:54:52;101534.13;;;22.68;54.31
48614;BME280;34408;51.426;5.444;2023-06-22T08:57:21;101534.13;;;22.68;54.12
48614;BME280;34408;51.426;5.444;2023-06-22T08:59:49;101525.63;;;22.69;54.32
48614;BME280;34408;51.426;5.444;2023-06-22T09:02:18;101529.19;;;22.70;54.11
48614;BME280;34408;51.426;5.444;2023-06-22T09:04:46;101530.00;;;22.70;54.38
48614;BME280;34408;51.426;5.444;2023-06-22T09:07:17;101523.41;;;22.71;53.92
48614;BME280;34408;51.426;5.444;2023-06-22T09:09:48;101529.72;;;22.72;54.25
48614;BME280;34408;51.426;5.444;2023-06-22T09:12:16;101521.19;;;22.73;53.96
48614;BME280;34408;51.426;5.444;2023-06-22T09:14:46;101518.47;;;22.73;53.88
48614;BME280;34408;51.426;5.444;2023-06-22T09:17:14;101522.03;;;22.74;53.97
48614;BME280;34408;51.426;5.444;2023-06-22T09:19:42;101514.34;;;22.76;54.01
48614;BME280;34408;51.426;5.444;2023-06-22T09:22:10;101517.06;;;22.76;53.97
48614;BME280;34408;51.426;5.444;2023-06-22T09:24:39;101512.41;;;22.77;54.02
48614;BME280;34408;51.426;5.444;2023-06-22T09:27:07;101515.16;;;22.77;54.01
48614;BME280;34408;51.426;5.444;2023-06-22T09:29:35;101511.31;;;22.78;53.60
48614;BME280;34408;51.426;5.444;2023-06-22T09:32:03;101512.94;;;22.79;53.86
48614;BME280;34408;51.426;5.444;2023-06-22T09:34:31;101512.13;;;22.78;53.76
48614;BME280;34408;51.426;5.444;2023-06-22T09:36:59;101512.69;;;22.80;53.85
48614;BME280;34408;51.426;5.444;2023-06-22T09:39:27;101504.72;;;22.79;53.67
48614;BME280;34408;51.426;5.444;2023-06-22T09:41:57;101512.13;;;22.78;53.72
48614;BME280;34408;51.426;5.444;2023-06-22T09:44:25;101513.78;;;22.79;53.88
48614;BME280;34408;51.426;5.444;2023-06-22T09:46:53;101498.41;;;22.78;53.84
48614;BME280;34408;51.426;5.444;2023-06-22T09:49:21;101503.91;;;22.78;53.69
48614;BME280;34408;51.426;5.444;2023-06-22T09:52:09;101509.38;;;22.78;53.88
48614;BME280;34408;51.426;5.444;2023-06-22T09:54:37;101497.59;;;22.78;53.94
48614;BME280;34408;51.426;5.444;2023-06-22T09:57:07;101494.84;;;22.78;53.66
48614;BME280;34408;51.426;5.444;2023-06-22T09:59:34;101498.41;;;22.78;53.75
48614;BME280;34408;51.426;5.444;2023-06-22T10:02:03;101490.19;;;22.78;53.89
48614;BME280;34408;51.426;5.444;2023-06-22T10:04:31;101485.88;;;22.72;53.86
48614;BME280;34408;51.426;5.444;2023-06-22T10:06:59;101489.13;;;22.79;53.81
48614;BME280;34408;51.426;5.444;2023-06-22T10:09:27;101493.50;;;22.80;53.76
48614;BME280;34408;51.426;5.444;2023-06-22T10:11:55;101496.75;;;22.82;53.63
48614;BME280;34408;51.426;5.444;2023-06-22T10:14:24;101496.75;;;22.82;53.50
48614;BME280;34408;51.426;5.444;2023-06-22T10:16:53;101504.69;;;22.84;53.57
48614;BME280;34408;51.426;5.444;2023-06-22T10:19:25;101504.69;;;22.84;53.16
48614;BME280;34408;51.426;5.444;2023-06-22T10:21:53;101500.84;;;22.85;53.21
48614;BME280;34408;51.426;5.444;2023-06-22T10:24:21;101503.59;;;22.85;53.39
48614;BME280;34408;51.426;5.444;2023-06-22T10:26:49;101506.34;;;22.85;53.31
48614;BME280;34408;51.426;5.444;2023-06-22T10:29:17;101517.31;;;22.85;53.71
48614;BME280;34408;51.426;5.444;2023-06-22T10:31:46;101513.75;;;22.84;53.78
48614;BME280;34408;51.426;5.444;2023-06-22T10:34:14;101520.88;;;22.85;53.76
48614;BME280;34408;51.426;5.444;2023-06-22T10:36:42;101525.53;;;22.85;53.66
48614;BME280;34408;51.426;5.444;2023-06-22T10:39:09;101533.75;;;22.85;53.63
48614;BME280;34408;51.426;5.444;2023-06-22T10:41:37;101545.53;;;22.85;53.56
48614;BME280;34408;51.426;5.444;2023-06-22T10:44:05;101547.44;;;22.85;53.67
48614;BME280;34408;51.426;5.444;2023-06-22T10:46:33;101534.56;;;22.85;52.98
48614;BME280;34408;51.426;5.444;2023-06-22T10:49:02;101540.88;;;22.86;53.13
48614;BME280;34408;51.426;5.444;2023-06-22T10:51:30;101547.44;;;22.85;53.65
48614;BME280;34408;51.426;5.444;2023-06-22T10:53:58;101547.44;;;22.85;54.92
48614;BME280;34408;51.426;5.444;2023-06-22T10:56:26;101536.78;;;22.83;55.35
48614;BME280;34408;51.426;5.444;2023-06-22T10:58:54;101546.91;;;22.83;56.08
48614;BME280;34408;51.426;5.444;2023-06-22T11:01:22;101547.22;;;22.81;55.85
48614;BME280;34408;51.426;5.444;2023-06-22T11:03:53;101538.16;;;22.81;55.92
48614;BME280;34408;51.426;5.444;2023-06-22T11:06:23;101536.53;;;22.80;56.10
48614;BME280;34408;51.426;5.444;2023-06-22T11:08:50;101546.69;;;22.79;56.04
48614;BME280;34408;51.426;5.444;2023-06-22T11:11:37;101562.28;;;22.79;55.93
48614;BME280;34408;51.426;5.444;2023-06-22T11:14:05;101575.97;;;22.79;55.87
48614;BME280;34408;51.426;5.444;2023-06-22T11:16:33;101572.41;;;22.78;55.78
48614;BME280;34408;51.426;5.444;2023-06-22T11:19:01;101552.41;;;22.78;55.90
48614;BME280;34408;51.426;5.444;2023-06-22T11:21:31;101546.13;;;22.77;57.25
48614;BME280;34408;51.426;5.444;2023-06-22T11:23:59;101548.31;;;22.75;57.56
48614;BME280;34408;51.426;5.444;2023-06-22T11:26:27;101566.69;;;22.74;57.49
48614;BME280;34408;51.426;5.444;2023-06-22T11:28:55;101561.50;;;22.73;57.43
48614;BME280;34408;51.426;5.444;2023-06-22T11:31:23;101559.84;;;22.72;57.80
48614;BME280;34408;51.426;5.444;2023-06-22T11:33:52;101537.13;;;22.71;58.42
48614;BME280;34408;51.426;5.444;2023-06-22T11:36:20;101525.63;;;22.69;59.05
48614;BME280;34408;51.426;5.444;2023-06-22T11:38:49;101510.56;;;22.67;59.12
48614;BME280;34408;51.426;5.444;2023-06-22T11:41:18;101502.63;;;22.65;58.67
48614;BME280;34408;51.426;5.444;2023-06-22T11:43:45;101508.41;;;22.64;59.93
48614;BME280;34408;51.426;5.444;2023-06-22T11:46:13;101495.28;;;22.61;59.73
48614;BME280;34408;51.426;5.444;2023-06-22T11:48:41;101501.03;;;22.59;59.68
48614;BME280;34408;51.426;5.444;2023-06-22T11:51:09;101495.84;;;22.58;59.28
48614;BME280;34408;51.426;5.444;2023-06-22T11:53:36;101496.13;;;22.56;60.20
48614;BME280;34408;51.426;5.444;2023-06-22T11:56:05;101485.47;;;22.55;60.35
48614;BME280;34408;51.426;5.444;2023-06-22T11:58:36;101479.16;;;22.54;60.58
48614;BME280;34408;51.426;5.444;2023-06-22T12:01:03;101470.13;;;22.54;60.59
48614;BME280;34408;51.426;5.444;2023-06-22T12:03:31;101470.44;;;22.52;60.61
48614;BME280;34408;51.426;5.444;2023-06-22T12:06:00;101475.41;;;22.50;61.26
48614;BME280;34408;51.426;5.444;2023-06-22T12:08:28;101476.25;;;22.46;60.82
48614;BME280;34408;51.426;5.444;2023-06-22T12:10:55;101480.09;;;22.45;61.21
48614;BME280;34408;51.426;5.444;2023-06-22T12:13:24;101482.00;;;22.44;61.27
48614;BME280;34408;51.426;5.444;2023-06-22T12:15:52;101471.34;;;22.43;61.16
48614;BME280;34408;51.426;5.444;2023-06-22T12:18:20;101457.66;;;22.43;61.11
48614;BME280;34408;51.426;5.444;2023-06-22T12:20:48;101457.66;;;22.43;60.99
48614;BME280;34408;51.426;5.444;2023-06-22T12:23:16;101449.44;;;22.43;61.34
48614;BME280;34408;51.426;5.444;2023-06-22T12:25:44;101450.53;;;22.42;61.67
48614;BME280;34408;51.426;5.444;2023-06-22T12:28:12;101446.97;;;22.41;61.23
48614;BME280;34408;51.426;5.444;2023-06-22T12:30:41;101443.44;;;22.40;62.00
48614;BME280;34408;51.426;5.444;2023-06-22T12:33:09;101446.44;;;22.39;61.51
48614;BME280;34408;51.426;5.444;2023-06-22T12:35:37;101447.25;;;22.39;61.88
48614;BME280;34408;51.426;5.444;2023-06-22T12:38:05;101441.53;;;22.36;62.22
48614;BME280;34408;51.426;5.444;2023-06-22T12:40:34;101445.38;;;22.35;62.10
48614;BME280;34408;51.426;5.444;2023-06-22T12:43:02;101451.16;;;22.33;61.87
48614;BME280;34408;51.426;5.444;2023-06-22T12:45:30;101444.03;;;22.32;62.37
48614;BME280;34408;51.426;5.444;2023-06-22T12:48:01;101442.94;;;22.33;62.26
48614;BME280;34408;51.426;5.444;2023-06-22T12:50:29;101427.59;;;22.32;62.55
48614;BME280;34408;51.426;5.444;2023-06-22T12:52:57;101421.31;;;22.32;62.34
48614;BME280;34408;51.426;5.444;2023-06-22T12:55:26;101428.41;;;22.33;62.27
48614;BME280;34408;51.426;5.444;2023-06-22T12:57:54;101425.97;;;22.31;62.08
48614;BME280;34408;51.426;5.444;2023-06-22T13:00:22;101439.94;;;22.30;61.85
48614;BME280;34408;51.426;5.444;2023-06-22T13:02:49;101436.69;;;22.28;61.88
48614;BME280;34408;51.426;5.444;2023-06-22T13:05:21;101440.53;;;22.27;62.00